sensor_id;sensor_type;location;lat;lon;timestamp;pressure;altitude;pressure_sealevel;temperature;humidity
72794;BME280;63436;26.334;50.194;2022-12-10T00:02:01;61397.39;;;15.09;65.05
72794;BME280;63436;26.334;50.194;2022-12-10T00:04:29;61397.39;;;15.33;65.05
72794;BME280;63436;26.334;50.194;2022-12-10T00:06:51;61397.39;;;15.33;65.05
72794;BME280;63436;26.334;50.194;2022-12-10T00:09:23;61397.39;;;15.09;65.05
72794;BME280;63436;26.334;50.194;2022-12-10T00:11:42;61397.39;;;15.09;65.05
72794;BME280;63436;26.334;50.194;2022-12-10T00:14:13;61397.39;;;15.09;65.05
72794;BME280;63436;26.334;50.194;2022-12-10T00:16:34;61397.39;;;15.33;65.05
72794;BME280;63436;26.334;50.194;2022-12-10T00:18:58;61397.39;;;15.09;65.05
72794;BME280;63436;26.334;50.194;2022-12-10T00:21:26;61397.39;;;15.57;65.05
72794;BME280;63436;26.334;50.194;2022-12-10T00:23:49;61397.39;;;15.57;65.05
72794;BME280;63436;26.334;50.194;2022-12-10T00:26:16;61397.39;;;15.33;65.05
72794;BME280;63436;26.334;50.194;2022-12-10T00:28:41;61397.39;;;15.09;65.05
72794;BME280;63436;26.334;50.194;2022-12-10T00:31:09;61397.39;;;15.09;65.05
72794;BME280;63436;26.334;50.194;2022-12-10T00:33:31;61397.39;;;14.85;65.05
72794;BME280;63436;26.334;50.194;2022-12-10T00:36:01;61397.39;;;15.09;65.05
72794;BME280;63436;26.334;50.194;2022-12-10T00:38:22;61397.39;;;15.09;65.05
72794;BME280;63436;26.334;50.194;2022-12-10T00:40:47;61397.39;;;15.09;65.05
72794;BME280;63436;26.334;50.194;2022-12-10T00:43:13;61397.39;;;15.09;65.05
72794;BME280;63436;26.334;50.194;2022-12-10T00:45:38;61397.39;;;15.09;65.05
72794;BME280;63436;26.334;50.194;2022-12-10T00:48:04;61397.39;;;15.09;65.05
72794;BME280;63436;26.334;50.194;2022-12-10T00:50:36;61397.39;;;15.09;65.05
72794;BME280;63436;26.334;50.194;2022-12-10T00:53:00;61397.39;;;15.09;65.05
72794;BME280;63436;26.334;50.194;2022-12-10T00:55:24;61397.39;;;15.33;65.05
72794;BME280;63436;26.334;50.194;2022-12-10T00:57:46;61397.39;;;15.57;65.05
72794;BME280;63436;26.334;50.194;2022-12-10T01:00:13;61397.39;;;15.33;65.05
72794;BME280;63436;26.334;50.194;2022-12-10T01:02:38;61397.39;;;15.09;65.05
72794;BME280;63436;26.334;50.194;2022-12-10T01:05:04;61397.39;;;15.33;65.05
72794;BME280;63436;26.334;50.194;2022-12-10T01:07:28;61397.39;;;15.33;65.05
72794;BME280;63436;26.334;50.194;2022-12-10T01:09:53;61397.39;;;15.09;65.05
72794;BME280;63436;26.334;50.194;2022-12-10T01:12:19;61397.39;;;14.85;65.05
72794;BME280;63436;26.334;50.194;2022-12-10T01:14:45;61397.39;;;15.09;65.05
72794;BME280;63436;26.334;50.194;2022-12-10T01:17:10;61397.39;;;14.85;65.05
72794;BME280;63436;26.334;50.194;2022-12-10T01:19:36;61397.39;;;15.09;65.05
72794;BME280;63436;26.334;50.194;2022-12-10T01:22:02;61397.39;;;14.85;65.05
72794;BME280;63436;26.334;50.194;2022-12-10T01:24:27;61397.39;;;15.09;65.05
72794;BME280;63436;26.334;50.194;2022-12-10T01:26:53;61397.39;;;15.09;65.05
72794;BME280;63436;26.334;50.194;2022-12-10T01:29:18;61397.39;;;14.85;65.05
72794;BME280;63436;26.334;50.194;2022-12-10T01:31:43;61397.39;;;15.09;65.05
72794;BME280;63436;26.334;50.194;2022-12-10T01:34:11;61397.39;;;15.09;65.05
72794;BME280;63436;26.334;50.194;2022-12-10T01:36:36;61397.39;;;15.09;65.05
72794;BME280;63436;26.334;50.194;2022-12-10T01:39:01;61397.39;;;15.57;65.05
72794;BME280;63436;26.334;50.194;2022-12-10T01:41:30;61397.39;;;15.33;65.05
72794;BME280;63436;26.334;50.194;2022-12-10T01:43:57;61397.39;;;15.33;65.05
72794;BME280;63436;26.334;50.194;2022-12-10T01:46:17;61397.39;;;15.09;65.05
72794;BME280;63436;26.334;50.194;2022-12-10T01:48:42;61397.39;;;15.33;65.05
72794;BME280;63436;26.334;50.194;2022-12-10T01:51:08;61397.39;;;15.09;65.05
72794;BME280;63436;26.334;50.194;2022-12-10T01:53:33;61397.39;;;15.09;65.05
72794;BME280;63436;26.334;50.194;2022-12-10T01:55:58;61397.39;;;15.33;65.05
72794;BME280;63436;26.334;50.194;2022-12-10T01:58:24;61397.39;;;15.57;65.05
72794;BME280;63436;26.334;50.194;2022-12-10T02:00:57;61397.39;;;15.33;65.05
72794;BME280;63436;26.334;50.194;2022-12-10T02:03:21;61397.39;;;15.57;65.05
72794;BME280;63436;26.334;50.194;2022-12-10T02:05:43;61397.39;;;15.33;65.05
72794;BME280;63436;26.334;50.194;2022-12-10T02:08:10;61397.39;;;15.57;65.05
72794;BME280;63436;26.334;50.194;2022-12-10T02:10:41;61397.39;;;15.57;65.05
72794;BME280;63436;26.334;50.194;2022-12-10T02:13:01;61397.39;;;15.57;65.05
72794;BME280;63436;26.334;50.194;2022-12-10T02:15:25;61397.39;;;15.57;65.05
72794;BME280;63436;26.334;50.194;2022-12-10T02:17:51;61397.39;;;15.33;65.05
72794;BME280;63436;26.334;50.194;2022-12-10T02:20:18;61397.39;;;15.33;65.05
72794;BME280;63436;26.334;50.194;2022-12-10T02:22:40;61397.39;;;15.57;65.05
72794;BME280;63436;26.334;50.194;2022-12-10T02:25:05;61397.39;;;15.09;65.05
72794;BME280;63436;26.334;50.194;2022-12-10T02:27:33;61397.39;;;15.57;65.05
72794;BME280;63436;26.334;50.194;2022-12-10T02:29:54;61397.39;;;15.57;65.05
72794;BME280;63436;26.334;50.194;2022-12-10T02:32:23;61397.39;;;15.33;65.05
72794;BME280;63436;26.334;50.194;2022-12-10T02:34:49;61397.39;;;15.57;65.05
72794;BME280;63436;26.334;50.194;2022-12-10T02:37:14;61397.39;;;15.57;65.05
72794;BME280;63436;26.334;50.194;2022-12-10T02:39:40;61397.39;;;15.81;65.05
72794;BME280;63436;26.334;50.194;2022-12-10T02:42:03;61397.39;;;15.57;65.05
72794;BME280;63436;26.334;50.194;2022-12-10T02:44:28;61397.39;;;15.57;65.05
72794;BME280;63436;26.334;50.194;2022-12-10T02:46:55;61397.39;;;15.57;65.05
72794;BME280;63436;26.334;50.194;2022-12-10T02:49:18;61397.39;;;15.57;65.05
72794;BME280;63436;26.334;50.194;2022-12-10T02:51:42;61397.39;;;16.05;65.05
72794;BME280;63436;26.334;50.194;2022-12-10T02:56:36;61397.39;;;15.81;65.05
72794;BME280;63436;26.334;50.194;2022-12-10T02:59:07;61397.39;;;15.81;65.05
72794;BME280;63436;26.334;50.194;2022-12-10T03:01:30;61397.39;;;15.57;65.05
72794;BME280;63436;26.334;50.194;2022-12-10T03:03:56;61397.39;;;15.81;65.05
72794;BME280;63436;26.334;50.194;2022-12-10T03:06:20;61397.39;;;15.57;65.05
72794;BME280;63436;26.334;50.194;2022-12-10T03:08:47;61397.39;;;15.57;65.05
72794;BME280;63436;26.334;50.194;2022-12-10T03:11:12;61397.39;;;15.57;65.05
72794;BME280;63436;26.334;50.194;2022-12-10T03:13:35;61397.39;;;15.33;65.05
72794;BME280;63436;26.334;50.194;2022-12-10T03:15:59;61397.39;;;15.57;65.05
72794;BME280;63436;26.334;50.194;2022-12-10T03:18:25;61397.39;;;15.57;65.05
72794;BME280;63436;26.334;50.194;2022-12-10T03:20:51;61397.39;;;15.81;65.05
72794;BME280;63436;26.334;50.194;2022-12-10T03:23:16;61397.39;;;15.57;65.05
72794;BME280;63436;26.334;50.194;2022-12-10T03:25:40;61397.39;;;15.57;65.05
72794;BME280;63436;26.334;50.194;2022-12-10T03:28:06;61397.39;;;15.57;65.05
72794;BME280;63436;26.334;50.194;2022-12-10T03:30:32;61397.39;;;15.57;65.05
72794;BME280;63436;26.334;50.194;2022-12-10T03:32:57;61397.39;;;15.57;65.05
72794;BME280;63436;26.334;50.194;2022-12-10T03:35:23;61397.39;;;15.57;65.05
72794;BME280;63436;26.334;50.194;2022-12-10T03:37:48;61397.39;;;15.81;65.05
72794;BME280;63436;26.334;50.194;2022-12-10T03:40:13;61397.39;;;15.81;65.05
72794;BME280;63436;26.334;50.194;2022-12-10T03:42:39;61397.39;;;15.57;65.05
72794;BME280;63436;26.334;50.194;2022-12-10T03:45:06;61397.39;;;15.57;65.05
72794;BME280;63436;26.334;50.194;2022-12-10T03:47:29;61397.39;;;15.57;65.05
72794;BME280;63436;26.334;50.194;2022-12-10T03:49:55;61397.39;;;15.57;65.05
72794;BME280;63436;26.334;50.194;2022-12-10T03:52:21;61397.39;;;15.81;65.05
72794;BME280;63436;26.334;50.194;2022-12-10T03:54:46;61397.39;;;15.81;65.05
72794;BME280;63436;26.334;50.194;2022-12-10T03:57:12;61397.39;;;15.81;65.05
72794;BME280;63436;26.334;50.194;2022-12-10T03:59:37;61397.39;;;15.81;65.05
72794;BME280;63436;26.334;50.194;2022-12-10T04:02:03;61397.39;;;15.57;65.05
72794;BME280;63436;26.334;50.194;2022-12-10T04:04:28;61397.39;;;15.57;65.05
72794;BME280;63436;26.334;50.194;2022-12-10T04:06:54;61397.39;;;15.57;65.05
72794;BME280;63436;26.334;50.194;2022-12-10T04:09:19;61397.39;;;15.57;65.05
72794;BME280;63436;26.334;50.194;2022-12-10T04:11:44;61397.39;;;16.05;65.05
72794;BME280;63436;26.334;50.194;2022-12-10T04:14:10;61397.39;;;16.05;65.05
72794;BME280;63436;26.334;50.194;2022-12-10T04:16:36;61397.39;;;15.57;65.05
72794;BME280;63436;26.334;50.194;2022-12-10T04:19:03;61397.39;;;15.57;65.05
72794;BME280;63436;26.334;50.194;2022-12-10T04:21:27;61397.39;;;15.81;65.05
72794;BME280;63436;26.334;50.194;2022-12-10T04:23:51;61397.39;;;15.81;65.05
72794;BME280;63436;26.334;50.194;2022-12-10T04:26:17;61397.39;;;15.57;65.05
72794;BME280;63436;26.334;50.194;2022-12-10T04:28:43;61397.39;;;15.57;65.05
72794;BME280;63436;26.334;50.194;2022-12-10T04:31:08;61397.39;;;15.81;65.05
72794;BME280;63436;26.334;50.194;2022-12-10T04:33:33;61397.39;;;16.05;65.05
72794;BME280;63436;26.334;50.194;2022-12-10T04:36:00;61397.39;;;15.81;65.05
72794;BME280;63436;26.334;50.194;2022-12-10T04:38:25;61397.39;;;16.05;65.05
72794;BME280;63436;26.334;50.194;2022-12-10T04:40:50;61397.39;;;15.81;65.05
72794;BME280;63436;26.334;50.194;2022-12-10T04:43:16;61397.39;;;15.81;65.05
72794;BME280;63436;26.334;50.194;2022-12-10T04:45:46;61397.39;;;15.81;65.05
72794;BME280;63436;26.334;50.194;2022-12-10T04:48:06;61397.39;;;15.81;65.05
72794;BME280;63436;26.334;50.194;2022-12-10T04:50:31;61397.39;;;15.81;65.05
72794;BME280;63436;26.334;50.194;2022-12-10T04:52:57;61397.39;;;15.81;65.05
72794;BME280;63436;26.334;50.194;2022-12-10T04:55:22;61397.39;;;16.05;65.05
72794;BME280;63436;26.334;50.194;2022-12-10T04:57:48;61397.39;;;16.05;65.05
72794;BME280;63436;26.334;50.194;2022-12-10T05:00:13;61397.39;;;16.05;65.05
72794;BME280;63436;26.334;50.194;2022-12-10T05:02:38;61397.39;;;15.81;65.05
72794;BME280;63436;26.334;50.194;2022-12-10T05:05:05;61397.39;;;15.57;65.05
72794;BME280;63436;26.334;50.194;2022-12-10T05:07:29;61397.39;;;15.81;65.05
72794;BME280;63436;26.334;50.194;2022-12-10T05:09:54;61397.39;;;16.05;65.05
72794;BME280;63436;26.334;50.194;2022-12-10T05:12:19;61397.39;;;16.05;65.05
72794;BME280;63436;26.334;50.194;2022-12-10T05:14:45;61397.39;;;16.05;65.05
72794;BME280;63436;26.334;50.194;2022-12-10T05:17:10;61397.39;;;15.81;65.05
72794;BME280;63436;26.334;50.194;2022-12-10T05:19:36;61397.39;;;15.81;65.05
72794;BME280;63436;26.334;50.194;2022-12-10T05:22:02;61397.39;;;15.81;65.05
72794;BME280;63436;26.334;50.194;2022-12-10T05:24:27;61397.39;;;15.81;65.05
72794;BME280;63436;26.334;50.194;2022-12-10T05:26:53;61397.39;;;16.05;65.05
72794;BME280;63436;26.334;50.194;2022-12-10T05:29:19;61397.39;;;16.05;65.05
72794;BME280;63436;26.334;50.194;2022-12-10T05:31:43;61397.39;;;16.05;65.05
72794;BME280;63436;26.334;50.194;2022-12-10T05:34:11;61397.39;;;16.05;65.05
72794;BME280;63436;26.334;50.194;2022-12-10T05:36:35;61397.39;;;15.81;65.05
72794;BME280;63436;26.334;50.194;2022-12-10T05:39:00;61397.39;;;15.57;65.05
72794;BME280;63436;26.334;50.194;2022-12-10T05:41:30;61397.39;;;15.57;65.05
72794;BME280;63436;26.334;50.194;2022-12-10T05:43:53;61397.39;;;15.81;65.05
72794;BME280;63436;26.334;50.194;2022-12-10T05:46:22;61397.39;;;15.81;65.05
72794;BME280;63436;26.334;50.194;2022-12-10T05:48:42;61397.39;;;16.05;65.05
72794;BME280;63436;26.334;50.194;2022-12-10T05:51:09;61397.39;;;15.57;65.05
72794;BME280;63436;26.334;50.194;2022-12-10T05:53:34;61397.39;;;15.57;65.05
72794;BME280;63436;26.334;50.194;2022-12-10T05:56:00;61397.39;;;15.81;65.05
72794;BME280;63436;26.334;50.194;2022-12-10T05:58:23;61397.39;;;15.81;65.05
72794;BME280;63436;26.334;50.194;2022-12-10T06:00:49;61397.39;;;15.81;65.05
72794;BME280;63436;26.334;50.194;2022-12-10T06:03:15;61397.39;;;15.81;65.05
72794;BME280;63436;26.334;50.194;2022-12-10T06:05:41;61397.39;;;15.57;65.05
72794;BME280;63436;26.334;50.194;2022-12-10T06:08:06;61397.39;;;16.05;65.05
72794;BME280;63436;26.334;50.194;2022-12-10T06:10:34;61397.39;;;15.81;65.05
72794;BME280;63436;26.334;50.194;2022-12-10T06:12:57;61397.39;;;15.81;65.05
72794;BME280;63436;26.334;50.194;2022-12-10T06:15:22;61397.39;;;15.81;65.05
72794;BME280;63436;26.334;50.194;2022-12-10T06:17:48;61397.39;;;15.81;65.05
72794;BME280;63436;26.334;50.194;2022-12-10T06:20:13;61397.39;;;15.81;65.05
72794;BME280;63436;26.334;50.194;2022-12-10T06:22:38;61397.39;;;15.57;65.05
72794;BME280;63436;26.334;50.194;2022-12-10T06:25:04;61397.39;;;15.57;65.05
72794;BME280;63436;26.334;50.194;2022-12-10T06:27:30;61397.39;;;16.05;65.05
72794;BME280;63436;26.334;50.194;2022-12-10T06:29:54;61397.39;;;15.81;65.05
72794;BME280;63436;26.334;50.194;2022-12-10T06:32:21;61397.39;;;15.57;65.05
72794;BME280;63436;26.334;50.194;2022-12-10T06:34:45;61397.39;;;15.57;65.05
72794;BME280;63436;26.334;50.194;2022-12-10T06:37:11;61397.39;;;15.81;65.05
72794;BME280;63436;26.334;50.194;2022-12-10T06:39:36;61397.39;;;15.57;65.05
72794;BME280;63436;26.334;50.194;2022-12-10T06:42:02;61397.39;;;15.57;65.05
72794;BME280;63436;26.334;50.194;2022-12-10T06:44:27;61397.39;;;15.81;65.05
72794;BME280;63436;26.334;50.194;2022-12-10T06:46:54;61397.39;;;16.05;65.05
72794;BME280;63436;26.334;50.194;2022-12-10T06:49:18;61397.39;;;16.05;65.05
72794;BME280;63436;26.334;50.194;2022-12-10T06:51:44;61397.39;;;15.57;65.05
72794;BME280;63436;26.334;50.194;2022-12-10T06:54:10;61397.39;;;15.57;65.05
72794;BME280;63436;26.334;50.194;2022-12-10T06:56:35;61397.39;;;15.57;65.05
72794;BME280;63436;26.334;50.194;2022-12-10T06:59:04;61397.39;;;15.57;65.05
72794;BME280;63436;26.334;50.194;2022-12-10T07:01:27;61397.39;;;15.57;65.05
72794;BME280;63436;26.334;50.194;2022-12-10T07:03:53;61397.39;;;15.57;65.05
72794;BME280;63436;26.334;50.194;2022-12-10T07:06:18;61397.39;;;15.57;65.05
72794;BME280;63436;26.334;50.194;2022-12-10T07:08:43;61397.39;;;15.57;65.05
72794;BME280;63436;26.334;50.194;2022-12-10T07:11:11;61397.39;;;15.57;65.05
72794;BME280;63436;26.334;50.194;2022-12-10T07:13:35;61397.39;;;15.09;65.05
72794;BME280;63436;26.334;50.194;2022-12-10T07:16:00;61397.39;;;15.57;65.05
72794;BME280;63436;26.334;50.194;2022-12-10T07:18:25;61397.39;;;15.33;65.05
72794;BME280;63436;26.334;50.194;2022-12-10T07:20:51;61397.39;;;15.09;65.05
72794;BME280;63436;26.334;50.194;2022-12-10T07:23:18;61397.39;;;15.09;65.05
72794;BME280;63436;26.334;50.194;2022-12-10T07:25:42;61397.39;;;15.57;65.05
72794;BME280;63436;26.334;50.194;2022-12-10T07:28:08;61397.39;;;15.33;65.05
72794;BME280;63436;26.334;50.194;2022-12-10T07:30:33;61397.39;;;15.33;65.05
72794;BME280;63436;26.334;50.194;2022-12-10T07:32:58;61397.39;;;15.57;65.05
72794;BME280;63436;26.334;50.194;2022-12-10T07:35:23;61397.39;;;15.57;65.05
72794;BME280;63436;26.334;50.194;2022-12-10T07:37:49;61397.39;;;15.57;65.05
72794;BME280;63436;26.334;50.194;2022-12-10T07:40:15;61397.39;;;15.57;65.05
72794;BME280;63436;26.334;50.194;2022-12-10T07:42:40;61397.39;;;15.57;65.05
72794;BME280;63436;26.334;50.194;2022-12-10T07:45:06;61397.39;;;15.57;65.05
72794;BME280;63436;26.334;50.194;2022-12-10T07:47:31;61397.39;;;15.57;65.05
72794;BME280;63436;26.334;50.194;2022-12-10T07:49:56;61397.39;;;15.57;65.05
72794;BME280;63436;26.334;50.194;2022-12-10T07:52:22;61397.39;;;15.57;65.05
72794;BME280;63436;26.334;50.194;2022-12-10T07:54:48;61397.39;;;15.57;65.05
72794;BME280;63436;26.334;50.194;2022-12-10T07:57:12;61397.39;;;15.57;65.05
72794;BME280;63436;26.334;50.194;2022-12-10T07:59:38;61397.39;;;15.57;65.05
72794;BME280;63436;26.334;50.194;2022-12-10T08:02:04;61397.39;;;15.33;65.05
72794;BME280;63436;26.334;50.194;2022-12-10T08:04:29;61397.39;;;15.33;65.05
72794;BME280;63436;26.334;50.194;2022-12-10T08:06:55;61397.39;;;15.33;65.05
72794;BME280;63436;26.334;50.194;2022-12-10T08:09:20;61397.39;;;15.57;65.05
72794;BME280;63436;26.334;50.194;2022-12-10T08:11:45;61397.39;;;15.57;65.05
72794;BME280;63436;26.334;50.194;2022-12-10T08:14:11;61397.39;;;15.33;65.05
72794;BME280;63436;26.334;50.194;2022-12-10T08:16:37;61397.39;;;15.33;65.05
72794;BME280;63436;26.334;50.194;2022-12-10T08:19:02;61397.39;;;15.33;65.05
72794;BME280;63436;26.334;50.194;2022-12-10T08:21:29;61397.39;;;15.09;65.05
72794;BME280;63436;26.334;50.194;2022-12-10T08:23:53;61397.39;;;15.09;65.05
72794;BME280;63436;26.334;50.194;2022-12-10T08:26:20;61397.39;;;15.09;65.05
72794;BME280;63436;26.334;50.194;2022-12-10T08:28:44;61397.39;;;14.85;65.05
72794;BME280;63436;26.334;50.194;2022-12-10T08:31:10;61397.39;;;15.09;65.05
72794;BME280;63436;26.334;50.194;2022-12-10T08:33:34;61397.39;;;15.09;65.05
72794;BME280;63436;26.334;50.194;2022-12-10T08:36:00;61397.39;;;15.09;65.05
72794;BME280;63436;26.334;50.194;2022-12-10T08:38:25;61397.39;;;15.09;65.05
72794;BME280;63436;26.334;50.194;2022-12-10T08:40:50;61397.39;;;15.09;65.05
72794;BME280;63436;26.334;50.194;2022-12-10T08:43:16;61397.39;;;15.09;65.05
72794;BME280;63436;26.334;50.194;2022-12-10T08:45:42;61397.39;;;15.09;65.05
72794;BME280;63436;26.334;50.194;2022-12-10T08:48:07;61397.39;;;14.85;65.05
72794;BME280;63436;26.334;50.194;2022-12-10T08:50:32;61397.39;;;14.85;65.05
72794;BME280;63436;26.334;50.194;2022-12-10T08:52:58;61397.39;;;14.85;65.05
72794;BME280;63436;26.334;50.194;2022-12-10T08:55:24;61397.39;;;14.85;65.05
72794;BME280;63436;26.334;50.194;2022-12-10T08:57:49;61397.39;;;14.85;65.05
72794;BME280;63436;26.334;50.194;2022-12-10T09:00:15;61397.39;;;14.85;65.05
72794;BME280;63436;26.334;50.194;2022-12-10T09:02:40;61397.39;;;14.85;65.05
72794;BME280;63436;26.334;50.194;2022-12-10T09:05:06;61397.39;;;15.09;65.05
72794;BME280;63436;26.334;50.194;2022-12-10T09:07:30;61397.39;;;15.09;65.05
72794;BME280;63436;26.334;50.194;2022-12-10T09:09:56;61397.39;;;14.85;65.05
72794;BME280;63436;26.334;50.194;2022-12-10T09:12:21;61397.39;;;14.85;65.05
72794;BME280;63436;26.334;50.194;2022-12-10T09:14:47;61397.39;;;14.85;65.05
72794;BME280;63436;26.334;50.194;2022-12-10T09:17:12;61397.39;;;14.85;65.05
72794;BME280;63436;26.334;50.194;2022-12-10T09:19:39;61397.39;;;14.85;65.05
72794;BME280;63436;26.334;50.194;2022-12-10T09:22:04;61397.39;;;14.62;65.05
72794;BME280;63436;26.334;50.194;2022-12-10T09:24:29;61397.39;;;14.85;65.05
72794;BME280;63436;26.334;50.194;2022-12-10T09:26:55;61397.39;;;15.09;65.05
72794;BME280;63436;26.334;50.194;2022-12-10T09:29:20;61397.39;;;15.09;65.05
72794;BME280;63436;26.334;50.194;2022-12-10T09:31:50;61397.39;;;15.09;65.05
72794;BME280;63436;26.334;50.194;2022-12-10T09:34:11;61397.39;;;14.62;65.05
72794;BME280;63436;26.334;50.194;2022-12-10T09:36:37;61397.39;;;14.62;65.05
72794;BME280;63436;26.334;50.194;2022-12-10T09:39:03;61397.39;;;14.62;65.05
72794;BME280;63436;26.334;50.194;2022-12-10T09:41:43;61397.39;;;14.62;65.05
72794;BME280;63436;26.334;50.194;2022-12-10T09:43:58;61397.39;;;14.62;65.05
72794;BME280;63436;26.334;50.194;2022-12-10T09:46:26;61397.39;;;14.85;65.05
72794;BME280;63436;26.334;50.194;2022-12-10T09:48:52;61397.39;;;14.85;65.05
72794;BME280;63436;26.334;50.194;2022-12-10T09:51:14;61397.39;;;15.09;65.05
72794;BME280;63436;26.334;50.194;2022-12-10T09:53:36;61397.39;;;14.62;65.05
72794;BME280;63436;26.334;50.194;2022-12-10T09:56:03;61397.39;;;14.62;65.05
72794;BME280;63436;26.334;50.194;2022-12-10T09:58:27;61397.39;;;14.62;65.05
72794;BME280;63436;26.334;50.194;2022-12-10T10:00:57;61397.39;;;14.62;65.05
72794;BME280;63436;26.334;50.194;2022-12-10T10:03:19;61397.39;;;14.62;65.05
72794;BME280;63436;26.334;50.194;2022-12-10T10:05:45;61397.39;;;14.62;65.05
72794;BME280;63436;26.334;50.194;2022-12-10T10:08:22;61397.39;;;14.14;65.05
72794;BME280;63436;26.334;50.194;2022-12-10T10:10:36;61397.39;;;14.14;65.05
72794;BME280;63436;26.334;50.194;2022-12-10T10:13:08;61397.39;;;14.14;65.05
72794;BME280;63436;26.334;50.194;2022-12-10T10:15:30;61397.39;;;14.14;65.05
72794;BME280;63436;26.334;50.194;2022-12-10T10:17:53;61397.39;;;13.90;65.05
72794;BME280;63436;26.334;50.194;2022-12-10T10:20:15;61397.39;;;13.90;65.05
72794;BME280;63436;26.334;50.194;2022-12-10T10:22:40;61397.39;;;13.90;65.05
72794;BME280;63436;26.334;50.194;2022-12-10T10:25:08;61397.39;;;13.90;65.05
72794;BME280;63436;26.334;50.194;2022-12-10T10:27:31;61397.39;;;13.90;65.05
72794;BME280;63436;26.334;50.194;2022-12-10T10:30:00;61397.39;;;13.90;65.05
72794;BME280;63436;26.334;50.194;2022-12-10T10:32:25;61397.39;;;14.14;65.05
72794;BME280;63436;26.334;50.194;2022-12-10T10:34:54;61397.39;;;13.90;65.05
72794;BME280;63436;26.334;50.194;2022-12-10T10:37:19;61397.39;;;14.14;65.05
72794;BME280;63436;26.334;50.194;2022-12-10T10:39:40;61397.39;;;14.38;65.05
72794;BME280;63436;26.334;50.194;2022-12-10T10:42:08;61397.39;;;14.62;65.05
72794;BME280;63436;26.334;50.194;2022-12-10T10:44:35;61397.39;;;14.62;65.05
72794;BME280;63436;26.334;50.194;2022-12-10T10:46:56;61397.39;;;14.62;65.05
72794;BME280;63436;26.334;50.194;2022-12-10T10:49:24;61397.39;;;14.38;65.05
72794;BME280;63436;26.334;50.194;2022-12-10T10:51:47;61397.39;;;14.38;65.05
72794;BME280;63436;26.334;50.194;2022-12-10T10:54:12;61397.39;;;14.14;65.05
72794;BME280;63436;26.334;50.194;2022-12-10T10:56:41;61397.39;;;14.14;65.05
72794;BME280;63436;26.334;50.194;2022-12-10T10:59:05;61397.39;;;14.14;65.05
72794;BME280;63436;26.334;50.194;2022-12-10T11:03:57;61397.39;;;14.14;65.05
72794;BME280;63436;26.334;50.194;2022-12-10T11:06:20;61397.39;;;14.14;65.05
72794;BME280;63436;26.334;50.194;2022-12-10T11:08:46;61397.39;;;13.66;65.05
72794;BME280;63436;26.334;50.194;2022-12-10T11:11:13;61397.39;;;13.66;65.05
72794;BME280;63436;26.334;50.194;2022-12-10T11:13:37;61397.39;;;13.66;65.05
72794;BME280;63436;26.334;50.194;2022-12-10T11:16:12;61397.39;;;13.90;65.05
72794;BME280;63436;26.334;50.194;2022-12-10T11:18:32;61397.39;;;13.90;65.05
72794;BME280;63436;26.334;50.194;2022-12-10T11:21:01;61397.39;;;13.66;65.05
72794;BME280;63436;26.334;50.194;2022-12-10T11:23:20;61397.39;;;13.90;65.05
72794;BME280;63436;26.334;50.194;2022-12-10T11:25:50;61397.39;;;14.14;65.05
72794;BME280;63436;26.334;50.194;2022-12-10T11:28:20;61397.39;;;14.14;65.05
72794;BME280;63436;26.334;50.194;2022-12-10T11:30:39;61397.39;;;14.14;65.05
72794;BME280;63436;26.334;50.194;2022-12-10T11:33:12;61397.39;;;14.14;65.05
72794;BME280;63436;26.334;50.194;2022-12-10T11:35:35;61397.39;;;14.14;65.05
72794;BME280;63436;26.334;50.194;2022-12-10T11:37:56;61397.39;;;13.90;65.05
72794;BME280;63436;26.334;50.194;2022-12-10T11:40:28;61397.39;;;14.14;65.05
72794;BME280;63436;26.334;50.194;2022-12-10T11:42:51;61397.39;;;14.38;65.05
72794;BME280;63436;26.334;50.194;2022-12-10T11:45:15;61397.39;;;14.14;65.05
72794;BME280;63436;26.334;50.194;2022-12-10T11:47:42;61397.39;;;14.14;65.05
72794;BME280;63436;26.334;50.194;2022-12-10T11:50:10;61397.39;;;14.14;65.05
72794;BME280;63436;26.334;50.194;2022-12-10T11:52:32;61397.39;;;14.14;65.05
72794;BME280;63436;26.334;50.194;2022-12-10T11:55:01;61397.39;;;13.90;65.05
72794;BME280;63436;26.334;50.194;2022-12-10T11:57:21;61397.39;;;14.14;65.05
72794;BME280;63436;26.334;50.194;2022-12-10T11:59:43;61397.39;;;14.14;65.05
72794;BME280;63436;26.334;50.194;2022-12-10T12:02:19;61397.39;;;13.90;65.05
72794;BME280;63436;26.334;50.194;2022-12-10T12:04:43;61397.39;;;13.66;65.05
72794;BME280;63436;26.334;50.194;2022-12-10T12:07:05;61397.39;;;13.66;65.05
72794;BME280;63436;26.334;50.194;2022-12-10T12:09:27;61397.39;;;13.66;65.05
72794;BME280;63436;26.334;50.194;2022-12-10T12:11:57;61397.39;;;13.90;65.05
72794;BME280;63436;26.334;50.194;2022-12-10T12:14:19;61397.39;;;13.66;65.05
72794;BME280;63436;26.334;50.194;2022-12-10T12:16:42;61397.39;;;13.90;65.05
72794;BME280;63436;26.334;50.194;2022-12-10T12:19:05;61397.39;;;14.14;65.05
72794;BME280;63436;26.334;50.194;2022-12-10T12:21:29;61397.39;;;13.90;65.05
72794;BME280;63436;26.334;50.194;2022-12-10T12:23:56;61397.39;;;14.14;65.05
72794;BME280;63436;26.334;50.194;2022-12-10T12:26:22;61397.39;;;14.14;65.05
72794;BME280;63436;26.334;50.194;2022-12-10T12:28:48;61397.39;;;14.14;65.05
72794;BME280;63436;26.334;50.194;2022-12-10T12:31:12;61397.39;;;14.14;65.05
72794;BME280;63436;26.334;50.194;2022-12-10T12:33:41;61397.39;;;14.14;65.05
72794;BME280;63436;26.334;50.194;2022-12-10T12:36:06;61397.39;;;14.14;65.05
72794;BME280;63436;26.334;50.194;2022-12-10T12:38:30;61397.39;;;14.14;65.05
72794;BME280;63436;26.334;50.194;2022-12-10T12:40:54;61397.39;;;14.14;65.05
72794;BME280;63436;26.334;50.194;2022-12-10T12:43:19;61397.39;;;14.62;65.05
72794;BME280;63436;26.334;50.194;2022-12-10T12:45:44;61397.39;;;14.14;65.05